New Providence, Pennsylvania
Current Conditions -  °F | °C
As of 2:53 PM on Thursday 29 Jan 2015 (Local Time) from KLNS Reporting Station
Overcast Overcast  
Wind Chill: 17°   Ceiling: 9500
Heat Index: 29°   Visibility: 10mi
Dew Point: 12°   Wind: 16mph
Humidity: 49%   Direction: 140°SE
Pressure: 30.09"   Gusts: NA
Location:  39.93°N, 76.2°W
Report Text: KLNS 291953Z 14014KT 10SM OVC095 M02/M11 A3009 RMK AO2 PRESFR SLP194 T10171111
Loading
Personal Weather Stations






























Interactive Weather Map New forecast layout! Learn more

10-Day Weather Forecast

Advertisements
Track Severe Weather on mobile